Terminal Aerodrome Forecast
Issued by NWS Grand Forks, ND

Home | Current Version | Previous Version | Graphics & Text | Print | Product List | Glossary Off
Versions: 1 2 3 4 5 6 7 8 9 10 11 12 13

000
FTUS43 KFGF 021721
TAFFAR
TAF
KFAR 021721Z 0218/0318 34015G25KT P6SM SCT040
     FM030100 32006KT P6SM SKC
     FM031600 32013G20KT P6SM FEW050=

USA.gov is the U.S. government's official web portal to all federal, state and local government web resources and services.